Latest Weather Observations for Bombala AWS

IDN60801

Issued at 5:35 pm EST Monday 22 September 2014 (issued every 30 minutes, with the page automatically refreshed every 10 minutes)

About weather observations | Map of weather stations | Latest weather observations for NSW | Other Formats
Station Details ID: 070328 Name: BOMBALA AWS Lat: -37.00 Lon: 149.23 Height: 760.5 m
Data from the previous 72 hours. | See also: Recent months at Bombala AWS
Date/Time
EST
Temp
°C
App
Temp
°C
Dew
Point
Rel
Hum
%
Delta-T
°C
Wind Press
QNH
hPa
Press
MSL
hPa
Rain
since 9 am
mm
Dir
 
Spd
km/h
Gust
km/h
Spd
kts
Gust
kts
22/05:30pm 13.5 11.1 6.8 64 3.4 ENE 9 11 5 6 1027.9 1028.1 0.0
22/05:00pm 15.2 12.6 6.2 55 4.5 NE 9 15 5 8 1027.7 1027.9 0.0
22/04:30pm 17.7 15.7 -0.1 30 8.0 CALM 0 4 0 2 1027.5 1027.7 0.0
22/04:00pm 18.0 15.6 2.3 35 7.4 NW 4 7 2 4 1027.6 1027.8 0.0
22/03:30pm 18.0 15.1 1.5 33 7.7 NNW 6 11 3 6 1027.7 1027.9 0.0
22/03:00pm 17.9 15.4 1.4 33 7.6 ENE 4 7 2 4 1027.8 1028.0 0.0
22/02:30pm 17.6 15.0 4.2 41 6.6 WSW 7 11 4 6 1028.1 1028.2 0.0
22/02:00pm 17.6 15.1 1.6 34 7.4 W 4 7 2 4 1028.3 1028.4 0.0
22/01:30pm 16.9 14.6 2.9 39 6.7 NW 4 7 2 4 1028.5 1028.7 0.0
22/01:00pm 16.4 14.0 2.1 38 6.6 N 4 7 2 4 1028.8 1029.0 0.0
22/12:30pm 16.4 15.0 5.4 48 5.5 ENE 2 7 1 4 1029.2 1029.4 0.0
22/12:00pm 15.4 13.6 5.3 51 5.0 N 4 9 2 5 1029.7 1029.9 0.0
22/11:30am 14.4 12.4 7.0 61 3.8 NNW 7 11 4 6 1030.1 1030.3 0.0
22/11:00am 12.9 10.7 7.8 71 2.6 N 9 13 5 7 1030.5 1030.7 0.0
22/10:30am 10.5 8.2 7.6 82 1.5 N 9 13 5 7 1030.9 1031.1 0.0
22/10:00am 8.4 6.8 8.0 97 0.2 N 6 9 3 5 1031.0 1031.2 0.0
22/09:30am 6.4 4.4 6.4 100 0.0 N 6 7 3 4 1031.4 1031.6 0.0
22/09:00am 4.5 2.1 4.5 100 0.0 N 6 9 3 5 1031.5 1031.7 0.4
22/08:30am 3.2 0.4 3.2 100 0.0 N 7 9 4 5 1031.3 1031.5 0.4
22/08:00am 1.7 -1.7 1.7 100 0.0 NNW 9 13 5 7 1031.4 1031.6 0.4
22/07:30am 1.4 -2.5 1.4 100 0.0 NNW 11 13 6 7 1031.3 1031.5 0.4
22/07:00am 0.7 -3.3 0.7 100 0.0 NNW 11 15 6 8 1031.2 1031.4 0.4
22/06:30am -0.6 -4.0 -0.7 99 0.0 NNW 7 9 4 5 1031.0 1031.2 0.4
22/06:00am -0.3 -3.7 -0.4 99 0.0 NW 7 9 4 5 1030.5 1030.7 0.4
22/05:30am 0.6 -3.0 0.5 99 0.0 NNW 9 11 5 6 1030.3 1030.5 0.4
22/05:00am 1.4 -0.4 1.4 100 0.0 CALM 0 4 0 2 1030.1 1030.3 0.2
22/04:30am 1.5 -1.4 1.5 100 0.0 NNW 6 7 3 4 1029.9 1030.1 0.2
22/04:00am 1.7 -0.8 1.7 100 0.0 NW 4 7 2 4 1029.9 1030.1 0.2
22/03:30am 1.9 0.2 1.9 100 0.0 CALM 0 0 0 0 1029.8 1030.0 0.2
22/03:00am 1.7 0.0 1.7 100 0.0 CALM 0 0 0 0 1029.8 1030.0 0.2
22/02:30am 1.6 -0.9 1.5 99 0.0 WNW 4 4 2 2 1029.8 1030.0 0.2
22/02:00am 2.1 0.4 2.1 100 0.0 CALM 0 0 0 0 1030.1 1030.3 0.2
22/01:30am 2.1 -0.3 2.1 100 0.0 NE 4 4 2 2 1030.3 1030.5 0.2
22/01:00am 1.5 -0.3 1.4 99 0.0 CALM 0 2 0 1 1030.4 1030.6 0.2
22/12:30am 0.9 -1.7 0.8 99 0.0 NW 4 6 2 3 1030.3 1030.5 0.2
22/12:00am 1.4 -1.5 1.3 99 0.0 NNW 6 7 3 4 1030.2 1030.4 0.2
 
Date/Time
EST
Temp
°C
App
Temp
°C
Dew
Point
Rel
Hum
%
Delta-T
°C
Wind Press
QNH
hPa
Press
MSL
hPa
Rain
since 9 am
mm
Dir
 
Spd
km/h
Gust
km/h
Spd
kts
Gust
kts
21/11:30pm 0.7 -2.0 0.6 99 0.0 WNW 4 7 2 4 1030.2 1030.4 0.2
21/11:00pm 2.3 0.7 2.2 99 0.0 CALM 0 0 0 0 1030.3 1030.5 0.2
21/10:30pm 3.6 2.2 3.5 99 0.0 CALM 0 4 0 2 1030.2 1030.4 0.2
21/10:00pm 3.7 2.3 3.6 99 0.0 CALM 0 0 0 0 1030.3 1030.5 0.2
21/09:30pm 4.7 3.5 4.6 99 0.0 CALM 0 0 0 0 1030.2 1030.4 0.2
21/09:00pm 4.7 3.1 4.6 99 0.0 SE 2 6 1 3 1030.3 1030.5 0.2
21/08:30pm 4.9 2.4 4.8 99 0.0 SE 7 9 4 5 1030.3 1030.5 0.2
21/08:00pm 5.0 2.1 4.9 99 0.0 SSE 9 13 5 7 1030.1 1030.3 0.2
21/07:30pm 6.4 3.8 6.0 97 0.2 SE 9 11 5 6 1029.9 1030.1 0.2
21/07:00pm 6.7 3.6 5.5 92 0.6 SE 11 17 6 9 1029.7 1029.9 0.2
21/06:30pm 7.4 3.7 6.2 92 0.6 SSE 15 17 8 9 1029.2 1029.4 0.2
21/06:00pm 8.7 4.6 6.0 83 1.3 SE 17 20 9 11 1028.9 1029.1 0.2
21/05:30pm 10.3 7.7 6.1 75 2.0 SE 9 13 5 7 1028.6 1028.8 0.2
21/05:00pm 12.0 9.0 6.1 67 2.9 SE 11 13 6 7 1028.3 1028.4 0.2
21/04:30pm 12.8 9.1 6.2 64 3.3 SE 15 19 8 10 1028.2 1028.3 0.2
21/04:00pm 13.2 9.3 5.4 59 3.8 SSE 15 17 8 9 1028.1 1028.2 0.2
21/03:30pm 13.5 9.7 5.7 59 3.8 SSE 15 19 8 10 1027.9 1028.1 0.2
21/03:00pm 14.0 10.9 5.6 57 4.1 SE 11 17 6 9 1027.8 1028.0 0.2
21/02:30pm 14.6 12.3 5.7 55 4.4 ESE 7 15 4 8 1027.9 1028.1 0.0
21/02:00pm 14.8 12.4 4.5 50 5.0 WNW 6 17 3 9 1028.1 1028.2 0.0
21/01:30pm 14.0 11.3 3.8 50 4.8 WNW 7 11 4 6 1028.2 1028.3 0.0
21/01:00pm 13.4 10.7 2.9 49 4.8 WNW 6 11 3 6 1028.5 1028.7 0.0
21/12:30pm 12.8 9.7 3.7 54 4.3 W 9 17 5 9 1028.8 1029.0 0.0
21/12:00pm 12.0 8.9 3.5 56 3.9 WNW 9 15 5 8 1029.0 1029.2 0.0
21/11:30am 11.1 7.9 3.2 58 3.6 W 9 19 5 10 1029.3 1029.5 0.0
21/11:00am 10.8 6.9 3.6 61 3.3 WNW 13 20 7 11 1029.6 1029.7 0.0
21/10:30am 9.9 6.5 3.9 66 2.8 WNW 11 22 6 12 1029.8 1030.0 0.0
21/10:00am 9.1 4.9 3.9 70 2.4 WNW 15 20 8 11 1030.0 1030.2 0.0
21/09:30am 8.5 4.4 4.5 76 1.8 WNW 15 22 8 12 1030.1 1030.3 0.0
21/09:00am 7.4 2.4 3.8 78 1.6 W 19 26 10 14 1030.4 1030.6 0.0
21/08:30am 6.8 2.3 4.1 83 1.2 W 17 24 9 13 1030.3 1030.5 0.0
21/08:00am 5.9 1.0 4.1 88 0.8 W 19 24 10 13 1029.9 1030.1 0.0
21/07:30am 3.1 0.3 3.1 100 0.0 NNW 7 11 4 6 1029.8 1030.0 0.0
21/07:00am 0.9 -2.3 0.8 99 0.0 NNW 7 9 4 5 1030.0 1030.2 0.0
21/06:30am -0.2 -3.6 -0.3 99 0.0 NNW 7 11 4 6 1029.5 1029.6 0.0
21/06:00am -1.0 -4.3 -1.1 99 0.0 NNW 6 7 3 4 1029.2 1029.4 0.0
21/05:30am -1.1 -4.0 -1.2 99 0.0 NNW 4 6 2 3 1028.6 1028.8 0.0
21/05:00am -1.3 -3.5 -1.4 99 0.0 CALM 0 2 0 1 1027.9 1028.1 0.0
21/04:30am -0.6 -4.0 -0.7 99 0.0 N 7 7 4 4 1027.4 1027.6 0.0
21/04:00am 0.5 -1.8 0.4 99 0.0 WNW 2 6 1 3 1027.1 1027.2 0.0
21/03:30am 1.5 -1.0 1.4 99 0.0 NW 4 6 2 3 1027.2 1027.3 0.0
21/03:00am 1.7 -0.8 1.6 99 0.0 N 4 6 2 3 1027.1 1027.2 0.0
21/02:30am 1.9 -0.6 1.8 99 0.0 NNW 4 6 2 3 1027.3 1027.4 0.0
21/02:00am 3.2 0.6 3.1 99 0.0 WNW 6 6 3 3 1027.6 1027.8 0.0
21/01:30am 3.7 1.5 3.6 99 0.0 WNW 4 6 2 3 1027.8 1028.0 0.0
21/01:00am 4.4 1.8 4.3 99 0.0 WNW 7 9 4 5 1028.1 1028.2 0.0
21/12:30am 4.8 1.9 4.7 99 0.0 WNW 9 11 5 6 1028.3 1028.4 0.0
21/12:00am 3.5 1.7 3.4 99 0.0 NW 2 6 1 3 1028.4 1028.5 0.0
 
Date/Time
EST
Temp
°C
App
Temp
°C
Dew
Point
Rel
Hum
%
Delta-T
°C
Wind Press
QNH
hPa
Press
MSL
hPa
Rain
since 9 am
mm
Dir
 
Spd
km/h
Gust
km/h
Spd
kts
Gust
kts
20/11:30pm 3.2 0.4 3.1 99 0.0 NNW 7 7 4 4 1028.4 1028.5 0.0
20/11:00pm 3.5 0.7 3.4 99 0.0 NNW 7 9 4 5 1028.5 1028.7 0.0
20/10:30pm 3.8 1.7 3.7 99 0.0 SW 4 6 2 3 1028.6 1028.8 0.0
20/10:00pm 4.7 3.5 4.6 99 0.0 CALM 0 0 0 0 1028.6 1028.8 0.0
20/09:30pm 4.4 2.0 4.3 99 0.0 SW 6 6 3 3 1028.5 1028.7 0.0
20/09:00pm 4.9 2.6 4.8 99 0.0 S 6 7 3 4 1028.4 1028.5 0.0
20/08:30pm 4.6 1.7 4.5 99 0.0 S 9 9 5 5 1028.1 1028.2 0.0
20/08:00pm 4.2 1.5 3.9 98 0.1 SSW 7 9 4 5 1027.9 1028.1 0.0
20/07:30pm 4.3 1.3 3.9 97 0.2 S 9 11 5 6 1027.5 1027.7 0.0
20/07:00pm 5.7 2.4 4.7 93 0.4 S 11 13 6 7 1027.2 1027.3 0.0
20/06:30pm 7.4 4.3 5.7 89 0.8 S 11 13 6 7 1026.8 1026.9 0.0
20/06:00pm 7.5 4.4 5.6 88 0.9 S 11 17 6 9 1026.2 1026.4 0.0
20/05:30pm 8.2 4.2 4.8 79 1.6 S 15 17 8 9 1025.8 1025.9 0.0
20/05:00pm 9.4 4.7 2.9 64 2.9 SW 17 20 9 11 1025.4 1025.5 0.0
20/04:30pm 10.1 5.7 4.5 68 2.6 SSW 17 24 9 13 1025.0 1025.1 0.0
20/04:00pm 10.7 7.0 4.2 64 3.0 SSW 13 17 7 9 1024.8 1024.9 0.0
20/03:30pm 10.2 5.6 3.9 65 2.9 SW 17 22 9 12 1024.8 1024.9 0.0
20/03:00pm 10.3 6.1 3.6 63 3.1 SSW 15 20 8 11 1024.7 1024.8 0.0
20/02:30pm 10.3 5.6 3.3 62 3.2 SW 17 24 9 13 1024.6 1024.7 0.0
20/02:00pm 11.4 6.2 5.3 66 2.9 WSW 22 28 12 15 1024.4 1024.5 0.0
20/01:30pm 10.6 5.6 3.6 62 3.2 WSW 19 24 10 13 1024.5 1024.6 0.0
20/01:00pm 10.1 3.5 4.0 66 2.8 WSW 28 37 15 20 1024.6 1024.7 0.0
20/12:30pm 11.1 5.4 5.0 66 2.9 SW 24 32 13 17 1024.5 1024.6 0.0
20/12:00pm 11.1 5.2 4.1 62 3.3 SW 24 32 13 17 1024.5 1024.6 0.0
20/11:30am 10.4 4.5 4.1 65 2.9 SW 24 37 13 20 1024.8 1024.9 0.0
20/11:00am 9.8 3.8 3.1 63 3.0 WSW 24 33 13 18 1025.0 1025.1 0.0
20/10:30am 9.2 3.3 3.8 69 2.5 WSW 24 32 13 17 1025.3 1025.4 0.0
20/10:00am 8.9 2.4 4.5 74 2.0 WSW 28 37 15 20 1025.1 1025.3 0.0
20/09:30am 7.9 1.5 3.4 73 2.0 WSW 26 39 14 21 1025.1 1025.3 0.0
20/09:00am 7.8 1.9 3.8 76 1.8 W 24 35 13 19 1025.1 1025.3 0.0
20/08:30am 6.8 1.7 3.1 77 1.6 WSW 19 32 10 17 1024.8 1024.9 0.0
20/08:00am 6.5 2.2 3.5 81 1.3 WSW 15 22 8 12 1024.6 1024.7 0.0
20/07:30am 5.9 0.6 2.9 81 1.3 WSW 20 32 11 17 1024.5 1024.6 0.0
20/07:00am 5.4 0.2 2.4 81 1.3 WSW 19 26 10 14 1024.1 1024.2 0.0
20/06:30am 5.3 0.1 2.3 81 1.3 WSW 19 26 10 14 1023.7 1023.8 0.0
20/06:00am 5.2 -0.1 2.0 80 1.3 WSW 19 26 10 14 1023.3 1023.4 0.0
20/05:30am 5.3 -0.9 2.0 79 1.4 WSW 24 32 13 17 1023.0 1023.1 0.0
20/05:00am 5.3 -0.6 1.8 78 1.5 WSW 22 35 12 19 1022.7 1022.7 0.0
20/04:30am 5.4 0.5 1.9 78 1.5 WSW 17 22 9 12 1022.5 1022.5 0.0
20/04:00am 5.3 0.8 2.3 81 1.3 WSW 15 24 8 13 1022.1 1022.2 0.0
20/03:30am 5.3 0.8 2.3 81 1.3 WSW 15 22 8 12 1022.1 1022.2 0.0
20/03:00am 4.8 -1.5 1.8 81 1.2 WSW 24 37 13 20 1021.7 1021.8 0.0
20/02:30am 4.7 -3.1 1.9 82 1.2 WSW 32 48 17 26 1021.5 1021.5 0.0
20/02:00am 4.9 -3.4 2.1 82 1.2 WSW 35 46 19 25 1021.4 1021.4 0.0
20/01:30am 5.1 -4.3 2.1 81 1.3 WSW 41 56 22 30 1021.2 1021.2 0.0
20/01:20am 5.1 -4.3 2.1 81 1.3 WSW 41 61 22 33 1021.1 1021.1 0.0
20/01:00am 5.3 -4.1 2.5 82 1.2 WSW 41 52 22 28 1021.1 1021.1 0.0
20/12:30am 5.2 -4.2 2.6 83 1.1 WSW 41 52 22 28 1021.0 1021.0 0.0
20/12:00am 5.2 -2.4 2.6 83 1.1 WSW 32 41 17 22 1021.4 1021.4 0.0
 
Date/Time
EST
Temp
°C
App
Temp
°C
Dew
Point
Rel
Hum
%
Delta-T
°C
Wind Press
QNH
hPa
Press
MSL
hPa
Rain
since 9 am
mm
Dir
 
Spd
km/h
Gust
km/h
Spd
kts
Gust
kts
19/11:30pm 5.3 -1.6 2.8 84 1.1 WSW 28 43 15 23 1021.5 1021.5 0.0
19/11:00pm 5.8 -1.4 3.0 82 1.2 WSW 30 41 16 22 1021.6 1021.6 0.0
19/10:30pm 6.2 -1.5 3.2 81 1.3 WSW 33 48 18 26 1021.6 1021.6 0.0
19/10:26pm 6.2 -1.0 3.2 81 1.3 WSW 30 48 16 26 1021.6 1021.6 0.0
19/10:00pm 6.5 1.0 3.8 83 1.2 WSW 22 28 12 15 1021.8 1021.9 0.0
19/09:30pm 6.5 0.9 3.7 82 1.2 WSW 22 30 12 16 1021.7 1021.8 0.0
19/09:00pm 6.5 1.3 3.7 82 1.2 W 20 28 11 15 1021.7 1021.8 0.0
19/08:30pm 6.3 1.7 3.6 83 1.2 W 17 26 9 14 1021.8 1021.9 0.0
19/08:00pm 6.6 1.4 3.6 81 1.3 WSW 20 28 11 15 1021.7 1021.8 0.0
19/07:30pm 6.6 1.4 3.4 80 1.4 WSW 20 28 11 15 1021.4 1021.4 0.0
19/07:00pm 6.9 1.9 3.5 79 1.5 WSW 19 28 10 15 1021.0 1021.0 0.0
19/06:30pm 7.3 1.7 3.4 76 1.7 WSW 22 30 12 16 1020.7 1020.8 0.0
19/06:00pm 7.4 2.4 3.5 76 1.7 W 19 24 10 13 1020.5 1020.5 0.0

Other Formats:

Comma delimited format used in spreadsheet applications
http://www.bom.gov.au/fwo/IDN60801/IDN60801.94929.axf

JavaScript Object Notation format (JSON) in row-major order
http://www.bom.gov.au/fwo/IDN60801/IDN60801.94929.json